sensor_id;sensor_type;location;lat;lon;timestamp;P1;durP1;ratioP1;P2;durP2;ratioP2
40781;SDS011;26493;51.938;7.626;2023-09-12T00:00:21;46.25;;;32.00;;
40781;SDS011;26493;51.938;7.626;2023-09-12T00:02:48;47.40;;;30.60;;
40781;SDS011;26493;51.938;7.626;2023-09-12T00:05:14;46.58;;;31.13;;
40781;SDS011;26493;51.938;7.626;2023-09-12T00:07:40;57.00;;;33.13;;
40781;SDS011;26493;51.938;7.626;2023-09-12T00:10:06;52.35;;;33.05;;
40781;SDS011;26493;51.938;7.626;2023-09-12T00:12:32;49.10;;;32.85;;
40781;SDS011;26493;51.938;7.626;2023-09-12T00:14:58;51.90;;;34.65;;
40781;SDS011;26493;51.938;7.626;2023-09-12T00:17:24;49.47;;;31.58;;
40781;SDS011;26493;51.938;7.626;2023-09-12T00:19:51;50.30;;;34.50;;
40781;SDS011;26493;51.938;7.626;2023-09-12T00:22:17;57.33;;;35.08;;
40781;SDS011;26493;51.938;7.626;2023-09-12T00:24:43;50.03;;;36.25;;
40781;SDS011;26493;51.938;7.626;2023-09-12T00:27:09;55.38;;;38.95;;
40781;SDS011;26493;51.938;7.626;2023-09-12T00:29:35;57.22;;;42.35;;
40781;SDS011;26493;51.938;7.626;2023-09-12T00:32:01;70.15;;;45.55;;
40781;SDS011;26493;51.938;7.626;2023-09-12T00:34:27;65.15;;;46.80;;
40781;SDS011;26493;51.938;7.626;2023-09-12T00:36:53;53.42;;;42.13;;
40781;SDS011;26493;51.938;7.626;2023-09-12T00:39:19;57.08;;;43.25;;
40781;SDS011;26493;51.938;7.626;2023-09-12T00:41:45;61.88;;;47.47;;
40781;SDS011;26493;51.938;7.626;2023-09-12T00:44:11;65.65;;;49.60;;
40781;SDS011;26493;51.938;7.626;2023-09-12T00:46:37;69.75;;;50.38;;
40781;SDS011;26493;51.938;7.626;2023-09-12T00:49:04;63.80;;;46.45;;
40781;SDS011;26493;51.938;7.626;2023-09-12T00:51:31;56.75;;;44.08;;
40781;SDS011;26493;51.938;7.626;2023-09-12T00:53:57;62.30;;;47.00;;
40781;SDS011;26493;51.938;7.626;2023-09-12T00:56:23;65.95;;;47.72;;
40781;SDS011;26493;51.938;7.626;2023-09-12T00:58:49;60.95;;;47.00;;
40781;SDS011;26493;51.938;7.626;2023-09-12T01:01:17;63.95;;;47.50;;
40781;SDS011;26493;51.938;7.626;2023-09-12T01:03:43;67.70;;;46.40;;
40781;SDS011;26493;51.938;7.626;2023-09-12T01:06:09;58.08;;;44.63;;
40781;SDS011;26493;51.938;7.626;2023-09-12T01:08:35;65.07;;;47.88;;
40781;SDS011;26493;51.938;7.626;2023-09-12T01:11:04;61.53;;;46.22;;
40781;SDS011;26493;51.938;7.626;2023-09-12T01:13:30;63.83;;;45.70;;
40781;SDS011;26493;51.938;7.626;2023-09-12T01:15:56;63.92;;;43.30;;
40781;SDS011;26493;51.938;7.626;2023-09-12T01:18:22;60.67;;;43.33;;
40781;SDS011;26493;51.938;7.626;2023-09-12T01:28:45;54.42;;;38.25;;
40781;SDS011;26493;51.938;7.626;2023-09-12T01:31:13;58.30;;;35.45;;
40781;SDS011;26493;51.938;7.626;2023-09-12T01:33:41;60.93;;;42.43;;
40781;SDS011;26493;51.938;7.626;2023-09-12T01:36:08;63.05;;;40.70;;
40781;SDS011;26493;51.938;7.626;2023-09-12T01:38:34;66.20;;;42.17;;
40781;SDS011;26493;51.938;7.626;2023-09-12T01:41:00;58.90;;;38.22;;
40781;SDS011;26493;51.938;7.626;2023-09-12T01:43:26;62.47;;;41.03;;
40781;SDS011;26493;51.938;7.626;2023-09-12T01:45:53;66.05;;;44.67;;
40781;SDS011;26493;51.938;7.626;2023-09-12T01:48:22;70.65;;;44.90;;
40781;SDS011;26493;51.938;7.626;2023-09-12T01:50:49;60.03;;;41.17;;
40781;SDS011;26493;51.938;7.626;2023-09-12T01:53:15;70.68;;;44.55;;
40781;SDS011;26493;51.938;7.626;2023-09-12T01:55:42;60.50;;;39.42;;
40781;SDS011;26493;51.938;7.626;2023-09-12T01:58:09;50.15;;;37.83;;
40781;SDS011;26493;51.938;7.626;2023-09-12T02:00:36;47.17;;;33.28;;
40781;SDS011;26493;51.938;7.626;2023-09-12T02:03:03;46.85;;;34.83;;
40781;SDS011;26493;51.938;7.626;2023-09-12T02:05:29;45.80;;;33.25;;
40781;SDS011;26493;51.938;7.626;2023-09-12T02:07:55;42.80;;;31.92;;
40781;SDS011;26493;51.938;7.626;2023-09-12T02:10:21;39.60;;;32.47;;
40781;SDS011;26493;51.938;7.626;2023-09-12T02:12:47;36.50;;;29.05;;
40781;SDS011;26493;51.938;7.626;2023-09-12T02:15:13;33.53;;;27.70;;
40781;SDS011;26493;51.938;7.626;2023-09-12T02:17:40;36.60;;;28.35;;
40781;SDS011;26493;51.938;7.626;2023-09-12T02:20:09;36.58;;;28.02;;
40781;SDS011;26493;51.938;7.626;2023-09-12T02:22:36;32.53;;;26.83;;
40781;SDS011;26493;51.938;7.626;2023-09-12T02:25:03;33.42;;;27.42;;
40781;SDS011;26493;51.938;7.626;2023-09-12T02:27:29;35.92;;;27.65;;
40781;SDS011;26493;51.938;7.626;2023-09-12T02:29:56;35.03;;;27.73;;
40781;SDS011;26493;51.938;7.626;2023-09-12T02:32:21;32.22;;;28.73;;
40781;SDS011;26493;51.938;7.626;2023-09-12T02:34:47;31.60;;;26.63;;
40781;SDS011;26493;51.938;7.626;2023-09-12T02:37:13;34.35;;;28.75;;
40781;SDS011;26493;51.938;7.626;2023-09-12T02:39:40;32.75;;;27.88;;
40781;SDS011;26493;51.938;7.626;2023-09-12T02:42:06;35.70;;;27.80;;
40781;SDS011;26493;51.938;7.626;2023-09-12T02:44:32;32.72;;;27.88;;
40781;SDS011;26493;51.938;7.626;2023-09-12T02:46:58;31.95;;;26.40;;
40781;SDS011;26493;51.938;7.626;2023-09-12T02:49:24;36.88;;;28.00;;
40781;SDS011;26493;51.938;7.626;2023-09-12T02:51:50;32.60;;;27.45;;
40781;SDS011;26493;51.938;7.626;2023-09-12T02:54:16;29.38;;;25.25;;
40781;SDS011;26493;51.938;7.626;2023-09-12T02:56:42;31.48;;;25.13;;
40781;SDS011;26493;51.938;7.626;2023-09-12T02:59:08;60.20;;;36.33;;
40781;SDS011;26493;51.938;7.626;2023-09-12T03:01:34;47.22;;;26.60;;
40781;SDS011;26493;51.938;7.626;2023-09-12T03:04:00;5.80;;;3.40;;
40781;SDS011;26493;51.938;7.626;2023-09-12T03:06:28;3.78;;;2.28;;
40781;SDS011;26493;51.938;7.626;2023-09-12T03:08:54;6.43;;;3.53;;
40781;SDS011;26493;51.938;7.626;2023-09-12T03:11:20;5.32;;;3.15;;
40781;SDS011;26493;51.938;7.626;2023-09-12T03:13:46;10.15;;;4.60;;
40781;SDS011;26493;51.938;7.626;2023-09-12T03:16:13;4.30;;;2.50;;
40781;SDS011;26493;51.938;7.626;2023-09-12T03:18:39;8.20;;;4.30;;
40781;SDS011;26493;51.938;7.626;2023-09-12T03:21:05;5.70;;;2.97;;
40781;SDS011;26493;51.938;7.626;2023-09-12T03:23:31;4.80;;;2.85;;
40781;SDS011;26493;51.938;7.626;2023-09-12T03:26:04;4.72;;;2.70;;
40781;SDS011;26493;51.938;7.626;2023-09-12T03:28:30;5.03;;;3.03;;
40781;SDS011;26493;51.938;7.626;2023-09-12T03:31:06;4.80;;;2.70;;
40781;SDS011;26493;51.938;7.626;2023-09-12T03:33:32;4.38;;;2.60;;
40781;SDS011;26493;51.938;7.626;2023-09-12T03:35:58;3.20;;;1.90;;
40781;SDS011;26493;51.938;7.626;2023-09-12T03:38:24;4.03;;;2.30;;
40781;SDS011;26493;51.938;7.626;2023-09-12T03:40:50;7.07;;;3.83;;
40781;SDS011;26493;51.938;7.626;2023-09-12T03:43:16;5.63;;;2.80;;
40781;SDS011;26493;51.938;7.626;2023-09-12T03:45:42;4.72;;;2.83;;
40781;SDS011;26493;51.938;7.626;2023-09-12T03:48:08;6.53;;;3.90;;
40781;SDS011;26493;51.938;7.626;2023-09-12T03:50:34;5.93;;;3.53;;
40781;SDS011;26493;51.938;7.626;2023-09-12T03:53:00;7.03;;;4.18;;
40781;SDS011;26493;51.938;7.626;2023-09-12T03:55:27;7.72;;;4.60;;
40781;SDS011;26493;51.938;7.626;2023-09-12T03:57:53;8.75;;;5.25;;
40781;SDS011;26493;51.938;7.626;2023-09-12T04:00:19;8.45;;;5.10;;
40781;SDS011;26493;51.938;7.626;2023-09-12T04:02:45;9.45;;;5.72;;
40781;SDS011;26493;51.938;7.626;2023-09-12T04:05:11;10.32;;;5.88;;
40781;SDS011;26493;51.938;7.626;2023-09-12T04:07:37;9.75;;;5.78;;
40781;SDS011;26493;51.938;7.626;2023-09-12T04:10:03;10.88;;;6.78;;
40781;SDS011;26493;51.938;7.626;2023-09-12T04:12:29;10.05;;;6.07;;
40781;SDS011;26493;51.938;7.626;2023-09-12T04:14:55;16.98;;;9.35;;
40781;SDS011;26493;51.938;7.626;2023-09-12T04:17:21;14.00;;;9.15;;
40781;SDS011;26493;51.938;7.626;2023-09-12T04:19:47;15.30;;;9.68;;
40781;SDS011;26493;51.938;7.626;2023-09-12T04:22:13;13.35;;;8.45;;
40781;SDS011;26493;51.938;7.626;2023-09-12T04:24:39;13.25;;;8.48;;
40781;SDS011;26493;51.938;7.626;2023-09-12T04:27:05;13.65;;;9.30;;
40781;SDS011;26493;51.938;7.626;2023-09-12T04:29:34;13.27;;;8.20;;
40781;SDS011;26493;51.938;7.626;2023-09-12T04:32:03;13.48;;;8.70;;
40781;SDS011;26493;51.938;7.626;2023-09-12T04:34:30;14.65;;;10.35;;
40781;SDS011;26493;51.938;7.626;2023-09-12T04:36:56;13.70;;;9.45;;
40781;SDS011;26493;51.938;7.626;2023-09-12T04:39:22;6.80;;;4.07;;
40781;SDS011;26493;51.938;7.626;2023-09-12T04:41:48;6.95;;;4.28;;
40781;SDS011;26493;51.938;7.626;2023-09-12T04:44:14;7.85;;;4.78;;
40781;SDS011;26493;51.938;7.626;2023-09-12T04:46:40;8.38;;;4.95;;
40781;SDS011;26493;51.938;7.626;2023-09-12T04:49:06;7.15;;;4.22;;
40781;SDS011;26493;51.938;7.626;2023-09-12T04:51:32;7.00;;;4.20;;
40781;SDS011;26493;51.938;7.626;2023-09-12T04:53:58;7.60;;;4.45;;
40781;SDS011;26493;51.938;7.626;2023-09-12T04:56:24;7.35;;;4.38;;
40781;SDS011;26493;51.938;7.626;2023-09-12T04:58:50;9.13;;;5.40;;
40781;SDS011;26493;51.938;7.626;2023-09-12T05:01:16;10.93;;;6.80;;
40781;SDS011;26493;51.938;7.626;2023-09-12T05:03:43;9.52;;;5.93;;
40781;SDS011;26493;51.938;7.626;2023-09-12T05:06:12;9.55;;;5.80;;
40781;SDS011;26493;51.938;7.626;2023-09-12T05:08:38;9.88;;;5.88;;
40781;SDS011;26493;51.938;7.626;2023-09-12T05:11:04;11.45;;;6.85;;
40781;SDS011;26493;51.938;7.626;2023-09-12T05:13:30;10.93;;;6.60;;
40781;SDS011;26493;51.938;7.626;2023-09-12T05:15:56;11.60;;;7.05;;
40781;SDS011;26493;51.938;7.626;2023-09-12T05:18:23;11.82;;;7.40;;
40781;SDS011;26493;51.938;7.626;2023-09-12T05:20:49;12.07;;;7.72;;
40781;SDS011;26493;51.938;7.626;2023-09-12T05:23:15;13.88;;;8.95;;
40781;SDS011;26493;51.938;7.626;2023-09-12T05:25:41;13.88;;;8.48;;
40781;SDS011;26493;51.938;7.626;2023-09-12T05:28:07;14.80;;;11.57;;
40781;SDS011;26493;51.938;7.626;2023-09-12T05:30:33;15.50;;;13.73;;
40781;SDS011;26493;51.938;7.626;2023-09-12T05:32:59;20.08;;;18.17;;
40781;SDS011;26493;51.938;7.626;2023-09-12T05:35:25;21.70;;;19.80;;
40781;SDS011;26493;51.938;7.626;2023-09-12T05:37:51;26.10;;;24.00;;
40781;SDS011;26493;51.938;7.626;2023-09-12T05:40:17;27.02;;;24.92;;
40781;SDS011;26493;51.938;7.626;2023-09-12T05:42:44;25.27;;;23.27;;
40781;SDS011;26493;51.938;7.626;2023-09-12T05:45:10;25.83;;;23.77;;
40781;SDS011;26493;51.938;7.626;2023-09-12T05:53:15;26.65;;;24.55;;
40781;SDS011;26493;51.938;7.626;2023-09-12T05:55:41;26.70;;;24.50;;
40781;SDS011;26493;51.938;7.626;2023-09-12T06:00:43;25.30;;;23.30;;
40781;SDS011;26493;51.938;7.626;2023-09-12T06:03:09;26.52;;;24.05;;
40781;SDS011;26493;51.938;7.626;2023-09-12T06:05:35;24.73;;;22.73;;
40781;SDS011;26493;51.938;7.626;2023-09-12T06:08:01;25.50;;;23.50;;
40781;SDS011;26493;51.938;7.626;2023-09-12T06:10:27;27.42;;;24.80;;
40781;SDS011;26493;51.938;7.626;2023-09-12T06:12:53;25.75;;;23.45;;
40781;SDS011;26493;51.938;7.626;2023-09-12T06:15:19;24.55;;;22.50;;
40781;SDS011;26493;51.938;7.626;2023-09-12T06:17:45;23.50;;;21.60;;
40781;SDS011;26493;51.938;7.626;2023-09-12T06:20:11;24.15;;;22.15;;
40781;SDS011;26493;51.938;7.626;2023-09-12T06:22:37;23.52;;;21.52;;
40781;SDS011;26493;51.938;7.626;2023-09-12T06:25:03;21.55;;;19.65;;
40781;SDS011;26493;51.938;7.626;2023-09-12T06:27:29;20.55;;;18.75;;
40781;SDS011;26493;51.938;7.626;2023-09-12T06:29:56;20.33;;;18.52;;
40781;SDS011;26493;51.938;7.626;2023-09-12T06:32:22;17.83;;;15.43;;
40781;SDS011;26493;51.938;7.626;2023-09-12T06:34:48;19.20;;;14.93;;
40781;SDS011;26493;51.938;7.626;2023-09-12T06:37:14;14.90;;;12.02;;
40781;SDS011;26493;51.938;7.626;2023-09-12T06:39:40;6.43;;;3.75;;
40781;SDS011;26493;51.938;7.626;2023-09-12T06:42:06;6.25;;;3.60;;
40781;SDS011;26493;51.938;7.626;2023-09-12T06:44:32;4.95;;;2.72;;
40781;SDS011;26493;51.938;7.626;2023-09-12T06:46:58;4.68;;;2.70;;
40781;SDS011;26493;51.938;7.626;2023-09-12T06:49:24;5.38;;;3.50;;
40781;SDS011;26493;51.938;7.626;2023-09-12T06:51:50;6.82;;;3.03;;
40781;SDS011;26493;51.938;7.626;2023-09-12T06:54:16;6.03;;;3.33;;
40781;SDS011;26493;51.938;7.626;2023-09-12T06:56:42;6.40;;;3.60;;
40781;SDS011;26493;51.938;7.626;2023-09-12T06:59:08;6.22;;;3.28;;
40781;SDS011;26493;51.938;7.626;2023-09-12T07:01:34;6.60;;;3.05;;
40781;SDS011;26493;51.938;7.626;2023-09-12T07:04:01;5.80;;;3.17;;
40781;SDS011;26493;51.938;7.626;2023-09-12T07:06:28;6.93;;;3.55;;
40781;SDS011;26493;51.938;7.626;2023-09-12T07:08:54;6.57;;;3.88;;
40781;SDS011;26493;51.938;7.626;2023-09-12T07:11:20;8.63;;;3.55;;
40781;SDS011;26493;51.938;7.626;2023-09-12T07:13:46;5.38;;;3.10;;
40781;SDS011;26493;51.938;7.626;2023-09-12T07:16:12;6.63;;;3.92;;
40781;SDS011;26493;51.938;7.626;2023-09-12T07:18:38;7.57;;;4.35;;
40781;SDS011;26493;51.938;7.626;2023-09-12T07:21:04;5.93;;;3.20;;
40781;SDS011;26493;51.938;7.626;2023-09-12T07:23:31;5.07;;;3.00;;
40781;SDS011;26493;51.938;7.626;2023-09-12T07:25:57;10.57;;;5.90;;
40781;SDS011;26493;51.938;7.626;2023-09-12T07:28:26;6.15;;;3.55;;
40781;SDS011;26493;51.938;7.626;2023-09-12T07:30:55;5.75;;;3.50;;
40781;SDS011;26493;51.938;7.626;2023-09-12T07:33:22;9.40;;;5.35;;
40781;SDS011;26493;51.938;7.626;2023-09-12T07:35:48;6.68;;;3.47;;
40781;SDS011;26493;51.938;7.626;2023-09-12T07:38:14;7.70;;;5.40;;
40781;SDS011;26493;51.938;7.626;2023-09-12T07:40:41;5.10;;;2.97;;
40781;SDS011;26493;51.938;7.626;2023-09-12T07:43:07;7.30;;;4.20;;
40781;SDS011;26493;51.938;7.626;2023-09-12T07:45:34;6.75;;;3.97;;
40781;SDS011;26493;51.938;7.626;2023-09-12T07:48:04;7.78;;;4.20;;
40781;SDS011;26493;51.938;7.626;2023-09-12T07:50:30;5.90;;;3.43;;
40781;SDS011;26493;51.938;7.626;2023-09-12T07:52:56;9.07;;;4.55;;
40781;SDS011;26493;51.938;7.626;2023-09-12T07:55:22;9.15;;;5.82;;
40781;SDS011;26493;51.938;7.626;2023-09-12T07:57:48;8.68;;;4.75;;
40781;SDS011;26493;51.938;7.626;2023-09-12T08:00:14;8.13;;;4.90;;
40781;SDS011;26493;51.938;7.626;2023-09-12T08:02:41;8.52;;;5.13;;
40781;SDS011;26493;51.938;7.626;2023-09-12T08:05:07;11.00;;;6.30;;
40781;SDS011;26493;51.938;7.626;2023-09-12T08:07:33;9.48;;;6.07;;
40781;SDS011;26493;51.938;7.626;2023-09-12T08:09:59;11.75;;;5.95;;
40781;SDS011;26493;51.938;7.626;2023-09-12T08:12:26;9.57;;;6.05;;
40781;SDS011;26493;51.938;7.626;2023-09-12T08:14:56;9.68;;;5.90;;
40781;SDS011;26493;51.938;7.626;2023-09-12T08:17:22;9.75;;;5.95;;
40781;SDS011;26493;51.938;7.626;2023-09-12T08:19:49;12.82;;;7.15;;
40781;SDS011;26493;51.938;7.626;2023-09-12T08:22:15;10.75;;;6.60;;
40781;SDS011;26493;51.938;7.626;2023-09-12T08:24:41;11.82;;;7.63;;
40781;SDS011;26493;51.938;7.626;2023-09-12T08:27:07;14.52;;;8.65;;
40781;SDS011;26493;51.938;7.626;2023-09-12T08:29:34;13.10;;;8.23;;
40781;SDS011;26493;51.938;7.626;2023-09-12T08:32:01;12.60;;;7.95;;
40781;SDS011;26493;51.938;7.626;2023-09-12T08:34:27;14.10;;;9.55;;
40781;SDS011;26493;51.938;7.626;2023-09-12T08:36:53;5.70;;;3.38;;
40781;SDS011;26493;51.938;7.626;2023-09-12T08:39:23;6.72;;;3.47;;
40781;SDS011;26493;51.938;7.626;2023-09-12T08:41:50;5.60;;;3.28;;
40781;SDS011;26493;51.938;7.626;2023-09-12T08:44:16;8.85;;;4.75;;
40781;SDS011;26493;51.938;7.626;2023-09-12T08:46:42;6.97;;;3.63;;
40781;SDS011;26493;51.938;7.626;2023-09-12T08:49:08;6.32;;;3.60;;
40781;SDS011;26493;51.938;7.626;2023-09-12T08:51:35;7.50;;;4.63;;
40781;SDS011;26493;51.938;7.626;2023-09-12T08:54:01;8.85;;;4.72;;
40781;SDS011;26493;51.938;7.626;2023-09-12T08:56:29;8.23;;;4.80;;
40781;SDS011;26493;51.938;7.626;2023-09-12T08:58:56;7.93;;;4.68;;
40781;SDS011;26493;51.938;7.626;2023-09-12T09:01:22;9.35;;;5.53;;
40781;SDS011;26493;51.938;7.626;2023-09-12T09:03:48;11.60;;;8.18;;
40781;SDS011;26493;51.938;7.626;2023-09-12T09:06:14;11.20;;;6.53;;
40781;SDS011;26493;51.938;7.626;2023-09-12T09:08:43;11.07;;;6.93;;
40781;SDS011;26493;51.938;7.626;2023-09-12T09:11:09;18.98;;;8.00;;
40781;SDS011;26493;51.938;7.626;2023-09-12T09:13:35;12.38;;;8.07;;
40781;SDS011;26493;51.938;7.626;2023-09-12T09:21:23;11.30;;;7.45;;
40781;SDS011;26493;51.938;7.626;2023-09-12T09:23:50;11.88;;;7.57;;
40781;SDS011;26493;51.938;7.626;2023-09-12T09:26:17;14.18;;;8.60;;
40781;SDS011;26493;51.938;7.626;2023-09-12T09:28:43;13.93;;;6.95;;
40781;SDS011;26493;51.938;7.626;2023-09-12T09:31:12;10.75;;;6.57;;
40781;SDS011;26493;51.938;7.626;2023-09-12T09:33:41;10.10;;;6.03;;
40781;SDS011;26493;51.938;7.626;2023-09-12T09:36:16;11.75;;;7.93;;
40781;SDS011;26493;51.938;7.626;2023-09-12T09:38:42;11.10;;;6.68;;
40781;SDS011;26493;51.938;7.626;2023-09-12T09:41:09;11.35;;;6.93;;
40781;SDS011;26493;51.938;7.626;2023-09-12T09:43:35;10.55;;;6.25;;
40781;SDS011;26493;51.938;7.626;2023-09-12T09:46:02;12.40;;;7.13;;
40781;SDS011;26493;51.938;7.626;2023-09-12T09:48:28;13.48;;;8.00;;
40781;SDS011;26493;51.938;7.626;2023-09-12T09:51:01;9.23;;;5.53;;
40781;SDS011;26493;51.938;7.626;2023-09-12T09:53:30;9.02;;;5.32;;
40781;SDS011;26493;51.938;7.626;2023-09-12T09:56:13;11.75;;;7.25;;
40781;SDS011;26493;51.938;7.626;2023-09-12T09:58:45;10.15;;;6.00;;
40781;SDS011;26493;51.938;7.626;2023-09-12T10:01:13;11.57;;;7.72;;
40781;SDS011;26493;51.938;7.626;2023-09-12T10:03:39;11.70;;;7.03;;
40781;SDS011;26493;51.938;7.626;2023-09-12T10:06:06;10.50;;;6.45;;
40781;SDS011;26493;51.938;7.626;2023-09-12T10:08:33;12.30;;;7.90;;
40781;SDS011;26493;51.938;7.626;2023-09-12T10:10:59;11.98;;;7.60;;
40781;SDS011;26493;51.938;7.626;2023-09-12T10:13:26;11.98;;;7.13;;
40781;SDS011;26493;51.938;7.626;2023-09-12T10:15:57;12.15;;;7.60;;
40781;SDS011;26493;51.938;7.626;2023-09-12T10:18:24;10.23;;;6.05;;
40781;SDS011;26493;51.938;7.626;2023-09-12T10:20:52;9.45;;;5.72;;
40781;SDS011;26493;51.938;7.626;2023-09-12T10:23:25;9.90;;;5.90;;
40781;SDS011;26493;51.938;7.626;2023-09-12T10:25:53;10.95;;;6.72;;
40781;SDS011;26493;51.938;7.626;2023-09-12T10:28:20;10.82;;;6.57;;
40781;SDS011;26493;51.938;7.626;2023-09-12T10:30:47;31.75;;;8.20;;
40781;SDS011;26493;51.938;7.626;2023-09-12T10:33:13;7.60;;;4.50;;
40781;SDS011;26493;51.938;7.626;2023-09-12T10:35:40;7.97;;;4.25;;
40781;SDS011;26493;51.938;7.626;2023-09-12T10:38:06;9.07;;;5.22;;
40781;SDS011;26493;51.938;7.626;2023-09-12T10:40:35;7.53;;;4.30;;
40781;SDS011;26493;51.938;7.626;2023-09-12T10:43:02;7.40;;;4.30;;
40781;SDS011;26493;51.938;7.626;2023-09-12T10:47:56;8.05;;;4.78;;
40781;SDS011;26493;51.938;7.626;2023-09-12T10:50:22;7.35;;;4.38;;
40781;SDS011;26493;51.938;7.626;2023-09-12T10:52:48;9.60;;;5.72;;
40781;SDS011;26493;51.938;7.626;2023-09-12T10:55:17;11.10;;;6.47;;
40781;SDS011;26493;51.938;7.626;2023-09-12T10:58:02;13.20;;;8.00;;
40781;SDS011;26493;51.938;7.626;2023-09-12T11:00:29;14.00;;;9.43;;
40781;SDS011;26493;51.938;7.626;2023-09-12T11:02:57;13.90;;;9.02;;
40781;SDS011;26493;51.938;7.626;2023-09-12T11:08:00;13.55;;;8.55;;
40781;SDS011;26493;51.938;7.626;2023-09-12T11:10:29;13.60;;;8.23;;
40781;SDS011;26493;51.938;7.626;2023-09-12T11:12:57;14.20;;;9.07;;
40781;SDS011;26493;51.938;7.626;2023-09-12T11:15:24;14.00;;;9.73;;
40781;SDS011;26493;51.938;7.626;2023-09-12T11:18:03;14.18;;;10.23;;
40781;SDS011;26493;51.938;7.626;2023-09-12T11:23:19;14.20;;;10.10;;
40781;SDS011;26493;51.938;7.626;2023-09-12T11:25:46;15.45;;;12.85;;
40781;SDS011;26493;51.938;7.626;2023-09-12T11:28:13;23.73;;;21.10;;
40781;SDS011;26493;51.938;7.626;2023-09-12T11:30:41;23.98;;;20.77;;
40781;SDS011;26493;51.938;7.626;2023-09-12T11:33:20;23.15;;;19.40;;
40781;SDS011;26493;51.938;7.626;2023-09-12T11:35:46;24.08;;;19.48;;
40781;SDS011;26493;51.938;7.626;2023-09-12T11:38:12;21.77;;;19.38;;
40781;SDS011;26493;51.938;7.626;2023-09-12T11:40:51;21.98;;;19.25;;
40781;SDS011;26493;51.938;7.626;2023-09-12T11:43:21;22.55;;;20.15;;
40781;SDS011;26493;51.938;7.626;2023-09-12T11:45:47;23.00;;;19.45;;
40781;SDS011;26493;51.938;7.626;2023-09-12T11:48:13;20.00;;;17.63;;
40781;SDS011;26493;51.938;7.626;2023-09-12T11:50:39;20.27;;;17.30;;
40781;SDS011;26493;51.938;7.626;2023-09-12T11:53:09;20.35;;;15.32;;
40781;SDS011;26493;51.938;7.626;2023-09-12T11:58:01;19.08;;;16.13;;
40781;SDS011;26493;51.938;7.626;2023-09-12T12:00:31;20.52;;;16.92;;
40781;SDS011;26493;51.938;7.626;2023-09-12T12:02:58;21.00;;;17.40;;
40781;SDS011;26493;51.938;7.626;2023-09-12T12:05:24;19.67;;;16.40;;
40781;SDS011;26493;51.938;7.626;2023-09-12T12:07:50;19.48;;;16.45;;
40781;SDS011;26493;51.938;7.626;2023-09-12T12:10:16;20.25;;;16.38;;
40781;SDS011;26493;51.938;7.626;2023-09-12T12:12:46;19.13;;;15.70;;
40781;SDS011;26493;51.938;7.626;2023-09-12T12:15:12;20.67;;;16.40;;
40781;SDS011;26493;51.938;7.626;2023-09-12T12:17:41;19.20;;;16.23;;
40781;SDS011;26493;51.938;7.626;2023-09-12T12:20:11;19.90;;;17.05;;
40781;SDS011;26493;51.938;7.626;2023-09-12T12:22:37;19.27;;;16.52;;
40781;SDS011;26493;51.938;7.626;2023-09-12T12:25:09;19.98;;;15.95;;
40781;SDS011;26493;51.938;7.626;2023-09-12T12:27:36;18.88;;;15.60;;
40781;SDS011;26493;51.938;7.626;2023-09-12T12:30:04;20.95;;;15.98;;
40781;SDS011;26493;51.938;7.626;2023-09-12T12:32:30;18.65;;;16.10;;
40781;SDS011;26493;51.938;7.626;2023-09-12T12:34:56;19.00;;;15.65;;
40781;SDS011;26493;51.938;7.626;2023-09-12T12:37:27;19.40;;;16.75;;
40781;SDS011;26493;51.938;7.626;2023-09-12T12:39:55;18.80;;;16.45;;
40781;SDS011;26493;51.938;7.626;2023-09-12T12:42:21;19.67;;;17.20;;
40781;SDS011;26493;51.938;7.626;2023-09-12T12:44:52;18.23;;;16.23;;
40781;SDS011;26493;51.938;7.626;2023-09-12T12:47:18;20.30;;;16.67;;
40781;SDS011;26493;51.938;7.626;2023-09-12T12:49:49;19.80;;;16.83;;
40781;SDS011;26493;51.938;7.626;2023-09-12T12:52:16;20.27;;;17.33;;
40781;SDS011;26493;51.938;7.626;2023-09-12T12:54:42;19.92;;;16.95;;
40781;SDS011;26493;51.938;7.626;2023-09-12T12:57:09;19.10;;;16.45;;
40781;SDS011;26493;51.938;7.626;2023-09-12T12:59:38;19.38;;;16.50;;
40781;SDS011;26493;51.938;7.626;2023-09-12T13:02:05;19.40;;;16.38;;
40781;SDS011;26493;51.938;7.626;2023-09-12T13:04:37;18.63;;;16.63;;
40781;SDS011;26493;51.938;7.626;2023-09-12T13:07:03;19.63;;;17.15;;
40781;SDS011;26493;51.938;7.626;2023-09-12T13:09:30;19.77;;;17.58;;
40781;SDS011;26493;51.938;7.626;2023-09-12T13:11:56;20.33;;;18.15;;
40781;SDS011;26493;51.938;7.626;2023-09-12T13:14:22;18.75;;;16.75;;
40781;SDS011;26493;51.938;7.626;2023-09-12T13:16:54;19.85;;;17.60;;
40781;SDS011;26493;51.938;7.626;2023-09-12T13:19:20;19.75;;;17.10;;
40781;SDS011;26493;51.938;7.626;2023-09-12T13:21:46;20.10;;;17.83;;
40781;SDS011;26493;51.938;7.626;2023-09-12T13:24:12;19.42;;;17.33;;
40781;SDS011;26493;51.938;7.626;2023-09-12T13:26:38;19.45;;;16.85;;
40781;SDS011;26493;51.938;7.626;2023-09-12T13:29:07;19.52;;;17.42;;
40781;SDS011;26493;51.938;7.626;2023-09-12T13:31:33;20.33;;;18.13;;
40781;SDS011;26493;51.938;7.626;2023-09-12T13:33:59;20.52;;;18.25;;
40781;SDS011;26493;51.938;7.626;2023-09-12T13:36:25;19.95;;;17.85;;
40781;SDS011;26493;51.938;7.626;2023-09-12T13:38:51;18.90;;;16.90;;
40781;SDS011;26493;51.938;7.626;2023-09-12T13:41:18;20.42;;;18.13;;
40781;SDS011;26493;51.938;7.626;2023-09-12T13:43:44;19.30;;;17.17;;
40781;SDS011;26493;51.938;7.626;2023-09-12T13:46:10;21.95;;;18.90;;
40781;SDS011;26493;51.938;7.626;2023-09-12T13:48:36;20.35;;;17.98;;
40781;SDS011;26493;51.938;7.626;2023-09-12T13:51:02;20.75;;;18.65;;
40781;SDS011;26493;51.938;7.626;2023-09-12T13:53:28;21.30;;;19.02;;
40781;SDS011;26493;51.938;7.626;2023-09-12T13:55:54;21.23;;;19.02;;
40781;SDS011;26493;51.938;7.626;2023-09-12T13:58:22;20.48;;;18.27;;
40781;SDS011;26493;51.938;7.626;2023-09-12T14:00:48;20.42;;;18.25;;
40781;SDS011;26493;51.938;7.626;2023-09-12T14:03:14;20.85;;;18.65;;
40781;SDS011;26493;51.938;7.626;2023-09-12T14:05:40;20.42;;;18.33;;
40781;SDS011;26493;51.938;7.626;2023-09-12T14:08:06;20.33;;;18.17;;
40781;SDS011;26493;51.938;7.626;2023-09-12T14:10:32;21.70;;;18.58;;
40781;SDS011;26493;51.938;7.626;2023-09-12T14:13:01;21.40;;;18.73;;
40781;SDS011;26493;51.938;7.626;2023-09-12T14:15:27;20.75;;;18.73;;
40781;SDS011;26493;51.938;7.626;2023-09-12T14:17:53;20.77;;;18.65;;
40781;SDS011;26493;51.938;7.626;2023-09-12T14:20:19;20.40;;;18.30;;
40781;SDS011;26493;51.938;7.626;2023-09-12T14:22:45;20.05;;;18.00;;
40781;SDS011;26493;51.938;7.626;2023-09-12T14:25:11;20.85;;;18.65;;
40781;SDS011;26493;51.938;7.626;2023-09-12T14:27:40;20.05;;;17.95;;
40781;SDS011;26493;51.938;7.626;2023-09-12T14:30:07;21.58;;;19.48;;
40781;SDS011;26493;51.938;7.626;2023-09-12T14:32:33;20.73;;;18.58;;
40781;SDS011;26493;51.938;7.626;2023-09-12T14:34:59;20.48;;;18.15;;
40781;SDS011;26493;51.938;7.626;2023-09-12T14:37:25;20.42;;;18.40;;
40781;SDS011;26493;51.938;7.626;2023-09-12T14:39:52;20.83;;;18.65;;
40781;SDS011;26493;51.938;7.626;2023-09-12T14:42:20;19.65;;;17.55;;
40781;SDS011;26493;51.938;7.626;2023-09-12T14:44:46;19.48;;;17.42;;
40781;SDS011;26493;51.938;7.626;2023-09-12T14:47:12;20.67;;;18.48;;
40781;SDS011;26493;51.938;7.626;2023-09-12T14:49:38;20.02;;;18.02;;
40781;SDS011;26493;51.938;7.626;2023-09-12T14:52:04;19.98;;;17.58;;
40781;SDS011;26493;51.938;7.626;2023-09-12T14:54:30;19.50;;;17.40;;
40781;SDS011;26493;51.938;7.626;2023-09-12T14:56:56;20.33;;;18.23;;
40781;SDS011;26493;51.938;7.626;2023-09-12T14:59:22;20.50;;;18.38;;